• Join FlightAware (Why Join?)
  • Login
  • US Flag 
09:52PM EDT


 

Airport Tracker/Info


-or-


 

Live Flight TrackerFlight Track Log ✈ LNI33 ✈ 15-Mar-2014 ✈ WADD / DPS - WIII / CGK

Flight Track Log - Related Links

Times and Time Zones

All times are in EDT time to prevent confusion due to time zone crossing. See the LNI33 flight status page for this flight to view local times or setup timezone preferences in your user account.

Time Position Orientation Groundspeed Altitude Reporting Facility
EDT Latitude Longitude Course Direction KTS MPH feet Rate Location/Type
07:15AM -7.8648 113.7817 300° West 473 544 31,500  Level FlightAware ADS-B
07:15AM -7.8321 113.7253 300° West 473 544 32,100 1,080 Climbing FlightAware ADS-B
07:16AM -7.7943 113.6603 300° West 471 542 32,700 1,140 Climbing FlightAware ADS-B
07:17AM -7.7495 113.5833 300° West 468 539 33,600 1,200 Climbing FlightAware ADS-B
07:17AM -7.7014 113.5007 300° West 464 534 34,400 1,380 Climbing FlightAware ADS-B
07:18AM -7.6660 113.4402 300° West 449 517 35,400 1,260 Climbing FlightAware ADS-B
07:19AM -7.6288 113.3763 300° West 449 517 35,900 420 Climbing FlightAware ADS-B
07:19AM -7.5832 113.2981 300° West 455 524 36,000 60 Climbing FlightAware ADS-B
07:20AM -7.5483 113.2385 300° West 465 535 36,000  Level FlightAware ADS-B
07:20AM -7.5149 113.1810 300° West 469 540 36,000  Level FlightAware ADS-B (RPLS / SGL)
07:21AM -7.5036 113.1578 294° West 470 541 36,000  Level FlightAware ADS-B
07:22AM -7.4692 113.0774 293° West 470 541 36,000  Level FlightAware ADS-B
07:22AM -7.4266 112.9777 293° West 470 541 36,000  Level FlightAware ADS-B
07:23AM -7.4018 112.9198 293° West 470 541 36,000  Level FlightAware ADS-B
07:23AM -7.3770 112.8620 293° West 469 540 36,000  Level FlightAware ADS-B
07:23AM -7.3583 112.8187 293° West 469 540 36,000  Level FlightAware ADS-B
07:24AM -7.3280 112.7485 294° West 470 541 36,000  Level FlightAware ADS-B (RPLS / SGL)
07:25AM -7.3372 112.7697 294° West 469 540 36,000  Level FlightAware ADS-B
07:25AM -7.2710 112.6169 293° West 468 539 36,000  Level FlightAware ADS-B (RPLS / SGL)
07:26AM -7.2753 112.6269 293° West 469 540 36,000  Level FlightAware ADS-B
07:27AM -7.2095 112.4747 294° West 467 537 36,000  Level FlightAware ADS-B
07:27AM -7.2443 112.5550 293° West 466 536 36,000  Level FlightAware ADS-B
07:30AM -7.1667 112.1321 280° West  Level Estimated
07:31AM -7.1304 111.9355 281° West  Level Estimated
07:32AM -7.0941 111.7389 281° West  Level Estimated
07:33AM -7.0577 111.5423 281° West  Level Estimated
07:34AM -7.0212 111.3458 281° West  Level Estimated
07:35AM -6.9847 111.1493 281° West  Level Estimated
07:36AM -6.9480 110.9528 281° West  Level Estimated
07:37AM -6.9113 110.7564 281° West  Level Estimated
07:38AM -6.8745 110.5600 281° West  Level Estimated
07:39AM -6.8376 110.3636 281° West  Level Estimated
07:40AM -6.8006 110.1673 281° West  Level Estimated
07:41AM -6.7636 109.9709 281° West  Level Estimated
07:42AM -6.7264 109.7747 281° West  Level Estimated
07:43AM -6.6892 109.5784 281° West  Level Estimated
07:44AM -6.6520 109.3822 281° West  Level Estimated
07:45AM -6.6146 109.1860 281° West  Level Estimated
07:46AM -6.5772 108.9898 281° West  Level Estimated
07:47AM -6.5396 108.7937 281° West  Level Estimated
07:48AM -6.5020 108.5975 281° West  Level Estimated
07:49AM -6.4644 108.4015 281° West  Level Estimated
07:50AM -6.4266 108.2054 281° West  Level Estimated
07:51AM -6.3888 108.0094 281° West  Level Estimated
07:52AM -6.3509 107.8134 281° West  Level Estimated
07:53AM -6.3130 107.6174 281° West  Level Estimated
07:54AM -6.2749 107.4215 281° West  Level Estimated
07:55AM -6.2368 107.2256 281° West  Level Estimated
07:56AM -6.1986 107.0297 281° West  Level Estimated
07:57AM -6.1604 106.8339 281° West  Level Estimated
07:58AM -6.1256 106.6559 281° West  Level Estimated
07:59AM -6.1256 106.6559 North  Level Estimated
08:00AM -6.1256 106.6559 North  Level Estimated
08:01AM -6.1256 106.6559 North  Level Estimated
08:02AM -6.1256 106.6559 North  Level Estimated
08:03AM -6.1256 106.6559 North  Level Estimated
08:04AM -6.1256 106.6559 North  Level Estimated
08:05AM -6.1256 106.6559 North  Level Estimated
08:06AM -6.1256 106.6559 North  Level Estimated
08:07AM -6.1256 106.6559 North  Level Estimated
08:08AM -6.1256 106.6559 North  Level Estimated
08:09AM -6.1256 106.6559 North  Level Estimated
08:10AM -6.1256 106.6559 North  Level Estimated
08:11AM -6.1256 106.6559 North  Level Estimated
08:12AM -6.1256 106.6559 North  Level Estimated
08:13AM -6.1256 106.6559 North  Level Estimated
08:14AM -6.1256 106.6559 North  Level Estimated
08:15AM -6.1256 106.6559 North  Level Estimated
08:16AM -6.1256 106.6559 North  Level Estimated